Time,TemperatureF,DewpointF,PressureIn,WindDirection,WindDirectionDegrees,WindSpeedMPH,WindSpeedGustMPH,Humidity,HourlyPrecipIn,Conditions,Clouds,dailyrainin,SoftwareType,DateUTC
2013-08-07 00:00:00,62.2,46.8,30.03,West,263,1.0,1.0,57,0.00,,,0.00,WeatherDisplay:10.34,2013-08-07 06:00:00,
2013-08-07 00:05:00,61.7,47.2,30.02,West,263,3.0,3.0,59,0.00,,,0.00,WeatherDisplay:10.34,2013-08-07 06:05:00,
2013-08-07 00:10:00,61.2,46.8,30.02,West,263,3.0,3.0,59,0.00,,,0.00,WeatherDisplay:10.34,2013-08-07 06:10:00,
2013-08-07 00:15:00,60.8,46.8,30.02,WSW,248,2.0,2.0,60,0.00,,,0.00,WeatherDisplay:10.34,2013-08-07 06:15:00,
2013-08-07 00:20:00,60.5,46.5,30.02,WSW,248,2.0,2.0,60,0.00,,,0.00,WeatherDisplay:10.34,2013-08-07 06:20:00,
2013-08-07 00:25:00,60.2,46.3,30.02,WSW,248,0.0,1.0,60,0.00,,,0.00,WeatherDisplay:10.34,2013-08-07 06:25:00,
2013-08-07 00:30:00,60.0,46.5,30.03,WSW,248,3.0,3.0,61,0.00,,,0.00,WeatherDisplay:10.34,2013-08-07 06:30:00,
2013-08-07 00:35:00,59.7,46.2,30.03,WSW,248,2.0,2.0,61,0.00,,,0.00,WeatherDisplay:10.34,2013-08-07 06:35:00,
2013-08-07 00:40:00,59.4,46.4,30.03,WSW,248,0.0,0.0,62,0.00,,,0.00,WeatherDisplay:10.34,2013-08-07 06:40:00,
2013-08-07 00:45:00,59.2,46.2,30.03,WSW,248,4.0,4.0,62,0.00,,,0.00,WeatherDisplay:10.34,2013-08-07 06:45:00,
2013-08-07 00:50:00,59.0,46.0,30.03,WSW,248,0.0,0.0,62,0.00,,,0.00,WeatherDisplay:10.34,2013-08-07 06:50:00,
2013-08-07 00:55:00,59.0,46.0,30.03,SW,234,5.0,5.0,62,0.00,,,0.00,WeatherDisplay:10.34,2013-08-07 06:55:00,
2013-08-07 01:00:00,58.8,45.4,30.03,SW,233,1.0,2.0,61,0.00,CLR,CLR,0.00,WeatherDisplay:10.34,2013-08-07 07:00:00,
2013-08-07 01:05:00,58.6,46.0,30.03,SW,233,0.0,0.0,63,0.00,CLR,CLR,0.00,WeatherDisplay:10.34,2013-08-07 07:05:00,
2013-08-07 01:10:00,58.5,45.9,30.02,SW,233,3.0,3.0,63,0.00,CLR,CLR,0.00,WeatherDisplay:10.34,2013-08-07 07:10:00,
2013-08-07 01:15:00,58.4,45.4,30.02,SW,233,5.0,5.0,62,0.00,CLR,CLR,0.00,WeatherDisplay:10.34,2013-08-07 07:15:00,
2013-08-07 01:20:00,58.5,45.5,30.03,SW,232,7.0,7.0,62,0.00,CLR,CLR,0.00,WeatherDisplay:10.34,2013-08-07 07:20:00,
2013-08-07 01:25:00,58.7,45.7,30.03,SW,236,6.0,6.0,62,0.00,CLR,CLR,0.00,WeatherDisplay:10.34,2013-08-07 07:25:00,
2013-08-07 01:30:00,59.0,45.6,30.02,WSW,248,4.0,4.0,61,0.00,CLR,CLR,0.00,WeatherDisplay:10.34,2013-08-07 07:30:00,
2013-08-07 01:35:00,59.0,45.1,30.02,WSW,252,4.0,4.0,60,0.00,CLR,CLR,0.00,WeatherDisplay:10.34,2013-08-07 07:35:00,
2013-08-07 01:40:00,59.3,45.4,30.02,West,263,5.0,7.0,60,0.00,CLR,CLR,0.00,WeatherDisplay:10.34,2013-08-07 07:40:00,
2013-08-07 01:45:00,59.6,45.7,30.02,West,262,1.0,2.0,60,0.00,CLR,CLR,0.00,WeatherDisplay:10.34,2013-08-07 07:45:00,
2013-08-07 01:50:00,59.7,46.7,30.02,West,263,2.0,2.0,62,0.00,CLR,CLR,0.00,WeatherDisplay:10.34,2013-08-07 07:50:00,
2013-08-07 01:55:00,59.6,46.6,30.02,West,263,0.0,0.0,62,0.00,CLR,CLR,0.00,WeatherDisplay:10.34,2013-08-07 07:55:00,
2013-08-07 02:00:00,59.4,46.4,30.02,West,263,3.0,3.0,62,0.00,CLR,CLR,0.00,WeatherDisplay:10.34,2013-08-07 08:00:00,
2013-08-07 02:05:00,59.1,45.7,30.02,West,273,4.0,5.0,61,0.00,CLR,CLR,0.00,WeatherDisplay:10.34,2013-08-07 08:05:00,
2013-08-07 02:10:00,59.0,46.0,30.01,West,273,2.0,3.0,62,0.00,CLR,CLR,0.00,WeatherDisplay:10.34,2013-08-07 08:10:00,
2013-08-07 02:15:00,59.0,46.4,30.01,West,273,1.0,1.0,63,0.00,CLR,CLR,0.00,WeatherDisplay:10.34,2013-08-07 08:15:00,
2013-08-07 02:20:00,58.9,46.3,30.01,West,273,1.0,2.0,63,0.00,CLR,CLR,0.00,WeatherDisplay:10.34,2013-08-07 08:20:00,
2013-08-07 02:25:00,58.7,46.1,30.01,West,273,0.0,0.0,63,0.00,CLR,CLR,0.00,WeatherDisplay:10.34,2013-08-07 08:25:00,
2013-08-07 02:30:00,58.5,45.9,30.01,West,273,0.0,0.0,63,0.00,CLR,CLR,0.00,WeatherDisplay:10.34,2013-08-07 08:30:00,
2013-08-07 02:35:00,58.4,45.8,30.01,West,273,2.0,2.0,63,0.00,CLR,CLR,0.00,WeatherDisplay:10.34,2013-08-07 08:35:00,
2013-08-07 02:40:00,58.2,45.7,30.01,West,273,0.0,1.0,63,0.00,CLR,CLR,0.00,WeatherDisplay:10.34,2013-08-07 08:40:00,
2013-08-07 02:45:00,58.0,45.9,30.01,West,273,0.0,0.0,64,0.00,CLR,CLR,0.00,WeatherDisplay:10.34,2013-08-07 08:45:00,
2013-08-07 02:50:00,57.9,45.8,30.01,West,273,0.0,1.0,64,0.00,CLR,CLR,0.00,WeatherDisplay:10.34,2013-08-07 08:50:00,
2013-08-07 02:55:00,57.7,46.0,30.01,West,273,1.0,1.0,65,0.00,CLR,CLR,0.00,WeatherDisplay:10.34,2013-08-07 08:55:00,
2013-08-07 03:00:00,57.5,46.2,30.01,SSE,149,2.0,2.0,66,0.00,CLR,CLR,0.00,WeatherDisplay:10.34,2013-08-07 09:00:00,
2013-08-07 03:05:00,57.1,46.6,30.01,SSE,150,4.0,4.0,68,0.00,CLR,CLR,0.00,WeatherDisplay:10.34,2013-08-07 09:05:00,
2013-08-07 03:10:00,56.7,46.6,30.01,SSE,150,0.0,0.0,69,0.00,CLR,CLR,0.00,WeatherDisplay:10.34,2013-08-07 09:10:00,
2013-08-07 03:15:00,56.4,46.4,30.01,SSE,150,0.0,0.0,69,0.00,CLR,CLR,0.00,WeatherDisplay:10.34,2013-08-07 09:15:00,
2013-08-07 03:20:00,56.2,46.5,30.01,SSE,150,0.0,0.0,70,0.00,CLR,CLR,0.00,WeatherDisplay:10.34,2013-08-07 09:20:00,
2013-08-07 03:25:00,55.8,46.5,30.01,SSE,150,4.0,4.0,71,0.00,CLR,CLR,0.00,WeatherDisplay:10.34,2013-08-07 09:25:00,
2013-08-07 03:30:00,55.5,46.6,30.01,SSE,150,0.0,0.0,72,0.00,CLR,CLR,0.00,WeatherDisplay:10.34,2013-08-07 09:30:00,
2013-08-07 03:35:00,55.3,46.8,30.01,SSE,150,0.0,0.0,73,0.00,CLR,CLR,0.00,WeatherDisplay:10.34,2013-08-07 09:35:00,
2013-08-07 03:40:00,55.1,46.6,30.01,SSE,150,0.0,0.0,73,0.00,CLR,CLR,0.00,WeatherDisplay:10.34,2013-08-07 09:40:00,
2013-08-07 03:45:00,54.9,46.4,30.01,SSE,150,0.0,0.0,73,0.00,CLR,CLR,0.00,WeatherDisplay:10.34,2013-08-07 09:45:00,
2013-08-07 03:50:00,54.8,46.7,30.01,SSE,152,1.0,1.0,74,0.00,CLR,CLR,0.00,WeatherDisplay:10.34,2013-08-07 09:50:00,
2013-08-07 03:55:00,54.7,46.6,30.01,SSE,152,1.0,1.0,74,0.00,CLR,CLR,0.00,WeatherDisplay:10.34,2013-08-07 09:55:00,
2013-08-07 04:00:00,54.6,46.5,30.01,SSE,152,2.0,2.0,74,0.00,CLR,CLR,0.00,WeatherDisplay:10.34,2013-08-07 10:00:00,
2013-08-07 04:05:00,54.6,46.5,30.01,SSE,152,3.0,3.0,74,0.00,CLR,CLR,0.00,WeatherDisplay:10.34,2013-08-07 10:05:00,
2013-08-07 04:10:00,54.6,46.5,30.01,SSE,152,0.0,0.0,74,0.00,CLR,CLR,0.00,WeatherDisplay:10.34,2013-08-07 10:10:00,
2013-08-07 04:15:00,54.6,46.5,30.01,SSE,152,2.0,2.0,74,0.00,CLR,CLR,0.00,WeatherDisplay:10.34,2013-08-07 10:15:00,
2013-08-07 04:20:00,54.6,46.5,30.01,SSE,152,1.0,1.0,74,0.00,CLR,CLR,0.00,WeatherDisplay:10.34,2013-08-07 10:20:00,
2013-08-07 04:25:00,54.7,46.9,30.01,SSW,210,0.0,1.0,75,0.00,CLR,CLR,0.00,WeatherDisplay:10.34,2013-08-07 10:25:00,
2013-08-07 04:30:00,54.7,46.9,30.01,SSW,200,3.0,3.0,75,0.00,CLR,CLR,0.00,WeatherDisplay:10.34,2013-08-07 10:30:00,
2013-08-07 04:35:00,54.8,46.7,30.01,SSW,200,0.0,0.0,74,0.00,CLR,CLR,0.00,WeatherDisplay:10.34,2013-08-07 10:35:00,
2013-08-07 04:40:00,54.8,46.7,30.01,SSW,199,0.0,0.0,74,0.00,CLR,CLR,0.00,WeatherDisplay:10.34,2013-08-07 10:40:00,
2013-08-07 04:45:00,54.9,46.8,30.01,SSW,200,1.0,1.0,74,0.00,CLR,CLR,0.00,WeatherDisplay:10.34,2013-08-07 10:45:00,
2013-08-07 04:50:00,55.0,46.5,30.01,SSW,200,2.0,2.0,73,0.00,CLR,CLR,0.00,WeatherDisplay:10.34,2013-08-07 10:50:00,
2013-08-07 04:55:00,55.1,46.6,30.01,SSW,199,0.0,0.0,73,0.00,CLR,CLR,0.00,WeatherDisplay:10.34,2013-08-07 10:55:00,
2013-08-07 05:00:00,55.2,46.7,30.01,SSW,199,1.0,2.0,73,0.00,CLR,CLR,0.00,WeatherDisplay:10.34,2013-08-07 11:00:00,
2013-08-07 05:05:00,55.2,46.7,30.01,SSW,200,2.0,2.0,73,0.00,CLR,CLR,0.00,WeatherDisplay:10.34,2013-08-07 11:05:00,
2013-08-07 05:10:00,55.2,46.7,30.01,SW,224,7.0,7.0,73,0.00,CLR,CLR,0.00,WeatherDisplay:10.34,2013-08-07 11:10:00,
2013-08-07 05:15:00,55.2,47.1,30.01,SW,232,6.0,6.0,74,0.00,CLR,CLR,0.00,WeatherDisplay:10.34,2013-08-07 11:15:00,
2013-08-07 05:20:00,55.2,47.4,30.00,SW,232,3.0,3.0,75,0.00,CLR,CLR,0.00,WeatherDisplay:10.34,2013-08-07 11:20:00,
2013-08-07 05:25:00,55.1,47.3,30.00,SW,232,5.0,5.0,75,0.00,CLR,CLR,0.00,WeatherDisplay:10.34,2013-08-07 11:25:00,
2013-08-07 05:30:00,54.9,47.1,30.00,SW,226,6.0,7.0,75,0.00,CLR,CLR,0.00,WeatherDisplay:10.34,2013-08-07 11:30:00,
2013-08-07 05:35:00,54.8,46.7,30.00,SW,232,6.0,6.0,74,0.00,CLR,CLR,0.00,WeatherDisplay:10.34,2013-08-07 11:35:00,
2013-08-07 05:40:00,54.7,46.9,30.00,SW,236,5.0,5.0,75,0.00,CLR,CLR,0.00,WeatherDisplay:10.34,2013-08-07 11:40:00,
2013-08-07 05:45:00,54.6,46.8,30.00,SW,236,6.0,7.0,75,0.00,CLR,CLR,0.00,WeatherDisplay:10.34,2013-08-07 11:45:00,
2013-08-07 05:50:00,54.5,46.7,30.00,SW,231,5.0,7.0,75,0.00,CLR,CLR,0.00,WeatherDisplay:10.34,2013-08-07 11:50:00,
2013-08-07 05:55:00,54.3,46.2,30.01,SW,226,6.0,7.0,74,0.00,CLR,CLR,0.00,WeatherDisplay:10.34,2013-08-07 11:55:00,
2013-08-07 06:00:00,54.2,46.1,30.01,SW,227,4.0,5.0,74,0.00,OVC,OVC,0.00,WeatherDisplay:10.34,2013-08-07 12:00:00,
2013-08-07 06:05:00,54.2,46.1,30.01,SW,223,4.0,5.0,74,0.00,OVC,OVC,0.00,WeatherDisplay:10.34,2013-08-07 12:05:00,
2013-08-07 06:10:00,54.3,45.8,30.00,SW,223,3.0,3.0,73,0.00,OVC,OVC,0.00,WeatherDisplay:10.34,2013-08-07 12:10:00,
2013-08-07 06:15:00,54.3,45.8,30.00,SW,217,5.0,5.0,73,0.00,CLR,CLR,0.00,WeatherDisplay:10.34,2013-08-07 12:15:00,
2013-08-07 06:20:00,54.4,45.9,30.01,SW,217,2.0,2.0,73,0.00,SCT,SCT,0.00,WeatherDisplay:10.34,2013-08-07 12:20:00,
2013-08-07 06:25:00,54.5,45.7,30.01,SW,217,2.0,2.0,72,0.00,BKN,BKN,0.00,WeatherDisplay:10.34,2013-08-07 12:25:00,
2013-08-07 06:30:00,54.5,45.7,30.00,SW,217,1.0,2.0,72,0.00,BKN,BKN,0.00,WeatherDisplay:10.34,2013-08-07 12:30:00,
2013-08-07 06:35:00,54.6,45.8,30.00,SW,225,6.0,7.0,72,0.00,OVC,OVC,0.00,WeatherDisplay:10.34,2013-08-07 12:35:00,
2013-08-07 06:40:00,54.7,45.5,30.00,WSW,246,5.0,10.0,71,0.00,OVC,OVC,0.00,WeatherDisplay:10.34,2013-08-07 12:40:00,
2013-08-07 06:45:00,55.0,45.4,30.00,SW,229,5.0,5.0,70,0.00,FEW,FEW,0.00,WeatherDisplay:10.34,2013-08-07 12:45:00,
2013-08-07 06:50:00,55.1,45.5,30.00,SW,235,4.0,5.0,70,0.00,FEW,FEW,0.00,WeatherDisplay:10.34,2013-08-07 12:50:00,
2013-08-07 06:55:00,55.3,45.3,30.00,WSW,250,5.0,7.0,69,0.00,CLR,CLR,0.00,WeatherDisplay:10.34,2013-08-07 12:55:00,
2013-08-07 07:00:00,55.6,45.6,30.00,SSW,211,5.0,5.0,69,0.00,CLR,CLR,0.00,WeatherDisplay:10.34,2013-08-07 13:00:00,
2013-08-07 07:05:00,55.9,45.9,30.00,WSW,249,7.0,7.0,69,0.00,CLR,CLR,0.00,WeatherDisplay:10.34,2013-08-07 13:05:00,
2013-08-07 07:10:00,56.3,46.3,30.01,WSW,239,7.0,8.0,69,0.00,CLR,CLR,0.00,WeatherDisplay:10.34,2013-08-07 13:10:00,
2013-08-07 07:15:00,56.6,46.5,30.01,WSW,240,4.0,5.0,69,0.00,CLR,CLR,0.00,WeatherDisplay:10.34,2013-08-07 13:15:00,
2013-08-07 07:20:00,56.9,46.8,30.00,WSW,237,4.0,7.0,69,0.00,CLR,CLR,0.00,WeatherDisplay:10.34,2013-08-07 13:20:00,
2013-08-07 07:25:00,57.3,46.8,30.00,WSW,245,7.0,9.0,68,0.00,CLR,CLR,0.00,WeatherDisplay:10.34,2013-08-07 13:25:00,
2013-08-07 07:30:00,57.8,46.9,30.00,West,261,6.0,8.0,67,0.00,CLR,CLR,0.00,WeatherDisplay:10.34,2013-08-07 13:30:00,
2013-08-07 07:35:00,58.5,47.2,30.00,WSW,250,6.0,7.0,66,0.00,CLR,CLR,0.00,WeatherDisplay:10.34,2013-08-07 13:35:00,
2013-08-07 07:40:00,59.0,47.2,30.00,WSW,250,4.0,4.0,65,0.00,CLR,CLR,0.00,WeatherDisplay:10.34,2013-08-07 13:40:00,
2013-08-07 07:45:00,59.6,47.4,30.00,SW,230,4.0,4.0,64,0.00,CLR,CLR,0.00,WeatherDisplay:10.34,2013-08-07 13:45:00,
2013-08-07 07:50:00,60.3,47.6,30.00,WSW,237,6.0,7.0,63,0.00,CLR,CLR,0.00,WeatherDisplay:10.34,2013-08-07 13:50:00,
2013-08-07 07:55:00,60.9,47.8,30.00,West,261,6.0,7.0,62,0.00,CLR,CLR,0.00,WeatherDisplay:10.34,2013-08-07 13:55:00,
2013-08-07 08:00:00,61.5,47.9,30.00,WSW,244,5.0,7.0,61,0.00,CLR,CLR,0.00,WeatherDisplay:10.34,2013-08-07 14:00:00,
2013-08-07 08:05:00,62.0,48.4,30.00,WSW,246,3.0,3.0,61,0.00,CLR,CLR,0.00,WeatherDisplay:10.34,2013-08-07 14:05:00,
2013-08-07 08:10:00,62.5,49.3,30.01,WSW,248,0.0,1.0,62,0.00,CLR,CLR,0.00,WeatherDisplay:10.34,2013-08-07 14:10:00,
2013-08-07 08:15:00,63.0,49.8,30.00,SW,234,5.0,5.0,62,0.00,CLR,CLR,0.00,WeatherDisplay:10.34,2013-08-07 14:15:00,
2013-08-07 08:20:00,63.6,50.3,30.00,WSW,241,2.0,2.0,62,0.00,CLR,CLR,0.00,WeatherDisplay:10.34,2013-08-07 14:20:00,
2013-08-07 08:25:00,64.3,49.7,30.00,WSW,241,0.0,0.0,59,0.00,CLR,CLR,0.00,WeatherDisplay:10.34,2013-08-07 14:25:00,
2013-08-07 08:30:00,64.7,50.0,30.00,WSW,242,3.0,3.0,59,0.00,CLR,CLR,0.00,WeatherDisplay:10.34,2013-08-07 14:30:00,
2013-08-07 08:35:00,65.2,49.6,30.00,WSW,242,0.0,1.0,57,0.00,CLR,CLR,0.00,WeatherDisplay:10.34,2013-08-07 14:35:00,
2013-08-07 08:40:00,65.6,49.0,30.00,WSW,241,2.0,3.0,55,0.00,CLR,CLR,0.00,WeatherDisplay:10.34,2013-08-07 14:40:00,
2013-08-07 08:45:00,66.0,48.9,30.01,WSW,242,1.0,1.0,54,0.00,CLR,CLR,0.00,WeatherDisplay:10.34,2013-08-07 14:45:00,
2013-08-07 08:50:00,66.4,47.7,30.00,WSW,241,0.0,0.0,51,0.00,CLR,CLR,0.00,WeatherDisplay:10.34,2013-08-07 14:50:00,
2013-08-07 08:55:00,66.8,48.6,30.00,WSW,241,1.0,2.0,52,0.00,CLR,CLR,0.00,WeatherDisplay:10.34,2013-08-07 14:55:00,
2013-08-07 09:00:00,67.4,49.2,30.00,WSW,242,0.0,0.0,52,0.00,CLR,CLR,0.00,WeatherDisplay:10.34,2013-08-07 15:00:00,
2013-08-07 09:05:00,68.1,49.3,30.00,WSW,242,0.0,1.0,51,0.00,CLR,CLR,0.00,WeatherDisplay:10.34,2013-08-07 15:05:00,
2013-08-07 09:10:00,68.9,49.5,30.00,SW,227,0.0,0.0,50,0.00,CLR,CLR,0.00,WeatherDisplay:10.34,2013-08-07 15:10:00,
2013-08-07 09:15:00,69.6,47.9,30.00,SW,226,0.0,0.0,46,0.00,CLR,CLR,0.00,WeatherDisplay:10.34,2013-08-07 15:15:00,
2013-08-07 09:20:00,70.5,48.7,30.00,West,273,2.0,3.0,46,0.00,CLR,CLR,0.00,WeatherDisplay:10.34,2013-08-07 15:20:00,
2013-08-07 09:25:00,71.2,50.5,30.00,West,275,1.0,1.0,48,0.00,CLR,CLR,0.00,WeatherDisplay:10.34,2013-08-07 15:25:00,
2013-08-07 09:30:00,71.7,48.6,30.00,West,275,0.0,0.0,44,0.00,CLR,CLR,0.00,WeatherDisplay:10.34,2013-08-07 15:30:00,
2013-08-07 09:35:00,72.2,48.5,30.00,WNW,286,3.0,3.0,43,0.00,CLR,CLR,0.00,WeatherDisplay:10.34,2013-08-07 15:35:00,
2013-08-07 09:40:00,72.6,48.2,30.00,North,360,4.0,4.0,42,0.00,CLR,CLR,0.00,WeatherDisplay:10.34,2013-08-07 15:40:00,
2013-08-07 09:45:00,72.9,47.8,30.00,North,360,0.0,0.0,41,0.00,CLR,CLR,0.00,WeatherDisplay:10.34,2013-08-07 15:45:00,
2013-08-07 09:50:00,73.2,48.7,29.99,North,360,1.0,2.0,42,0.00,CLR,CLR,0.00,WeatherDisplay:10.34,2013-08-07 15:50:00,
2013-08-07 09:52:00,73.4,48.3,29.99,North,360,1.0,2.0,41,0.00,CLR,CLR,0.00,WeatherDisplay:10.34,2013-08-07 15:52:00,
2013-08-07 09:57:00,73.9,47.4,30.00,ESE,114,5.0,5.0,39,0.00,CLR,CLR,0.00,WeatherDisplay:10.34,2013-08-07 15:57:00,
2013-08-07 10:02:00,74.2,48.3,30.00,ENE,70,3.0,3.0,40,0.00,CLR,CLR,0.00,WeatherDisplay:10.34,2013-08-07 16:02:00,
2013-08-07 10:07:00,74.6,48.0,30.00,ENE,72,3.0,3.0,39,0.00,CLR,CLR,0.00,WeatherDisplay:10.34,2013-08-07 16:07:00,
2013-08-07 10:12:00,74.9,49.6,30.00,NNE,30,3.0,3.0,41,0.00,CLR,CLR,0.00,WeatherDisplay:10.34,2013-08-07 16:12:00,
2013-08-07 10:17:00,75.3,50.0,30.00,ENE,61,4.0,7.0,41,0.00,CLR,CLR,0.00,WeatherDisplay:10.34,2013-08-07 16:17:00,
2013-08-07 10:22:00,75.6,49.6,30.00,NNE,23,4.0,8.0,40,0.00,CLR,CLR,0.00,WeatherDisplay:10.34,2013-08-07 16:22:00,
2013-08-07 10:27:00,75.5,50.1,30.00,North,5,0.0,1.0,41,0.00,CLR,CLR,0.00,WeatherDisplay:10.34,2013-08-07 16:27:00,
2013-08-07 10:32:00,75.8,49.1,29.99,East,79,5.0,5.0,39,0.00,CLR,CLR,0.00,WeatherDisplay:10.34,2013-08-07 16:32:00,
2013-08-07 10:37:00,76.1,50.7,29.99,NNE,14,7.0,8.0,41,0.00,CLR,CLR,0.00,WeatherDisplay:10.34,2013-08-07 16:37:00,
2013-08-07 10:42:00,76.4,50.3,29.99,ENE,68,2.0,3.0,40,0.00,CLR,CLR,0.00,WeatherDisplay:10.34,2013-08-07 16:42:00,
2013-08-07 10:47:00,76.7,49.9,29.99,East,84,4.0,7.0,39,0.00,CLR,CLR,0.00,WeatherDisplay:10.34,2013-08-07 16:47:00,
2013-08-07 10:52:00,76.9,50.7,29.99,ENE,70,5.0,5.0,40,0.00,FEW,FEW,0.00,WeatherDisplay:10.34,2013-08-07 16:52:00,
2013-08-07 10:57:00,77.3,49.7,29.99,ENE,57,1.0,2.0,38,0.00,FEW,FEW,0.00,WeatherDisplay:10.34,2013-08-07 16:57:00,
2013-08-07 11:02:00,77.5,49.9,29.99,NNE,28,2.0,2.0,38,0.00,FEW,FEW,0.00,WeatherDisplay:10.34,2013-08-07 17:02:00,
2013-08-07 11:07:00,77.7,50.1,29.99,North,349,1.0,2.0,38,0.00,FEW,FEW,0.00,WeatherDisplay:10.34,2013-08-07 17:07:00,
2013-08-07 11:12:00,78.0,51.0,29.99,NW,325,4.0,7.0,39,0.00,FEW,FEW,0.00,WeatherDisplay:10.34,2013-08-07 17:12:00,
2013-08-07 11:17:00,78.4,50.0,29.99,North,355,7.0,8.0,37,0.00,FEW,FEW,0.00,WeatherDisplay:10.34,2013-08-07 17:17:00,
2013-08-07 11:22:00,78.0,50.3,29.98,North,360,5.0,7.0,38,0.00,FEW,FEW,0.00,WeatherDisplay:10.34,2013-08-07 17:22:00,
2013-08-07 11:27:00,77.8,51.5,29.98,NNW,346,4.0,5.0,40,0.00,FEW,FEW,0.00,WeatherDisplay:10.34,2013-08-07 17:27:00,
2013-08-07 11:32:00,78.2,50.5,29.98,NNW,341,7.0,8.0,38,0.00,FEW,FEW,0.00,WeatherDisplay:10.34,2013-08-07 17:32:00,
2013-08-07 11:37:00,77.8,50.2,29.98,NE,46,7.0,8.0,38,0.00,FEW,FEW,0.00,WeatherDisplay:10.34,2013-08-07 17:37:00,
2013-08-07 11:42:00,78.3,49.9,29.98,NE,34,8.0,10.0,37,0.00,FEW,FEW,0.00,WeatherDisplay:10.34,2013-08-07 17:42:00,
2013-08-07 11:47:00,78.7,51.0,29.98,NNW,340,5.0,8.0,38,0.00,FEW,FEW,0.00,WeatherDisplay:10.34,2013-08-07 17:47:00,
2013-08-07 11:52:00,78.4,50.0,29.97,East,101,9.0,9.0,37,0.00,FEW,FEW,0.00,WeatherDisplay:10.34,2013-08-07 17:52:00,
2013-08-07 11:57:00,78.9,50.4,29.97,NE,55,7.0,7.0,37,0.00,FEW,FEW,0.00,WeatherDisplay:10.34,2013-08-07 17:57:00,
2013-08-07 12:02:00,79.6,50.3,29.97,NE,53,4.0,9.0,36,0.00,FEW,FEW,0.00,WeatherDisplay:10.34,2013-08-07 18:02:00,
2013-08-07 12:07:00,79.8,51.2,29.97,ENE,68,7.0,9.0,37,0.00,FEW,FEW,0.00,WeatherDisplay:10.34,2013-08-07 18:07:00,
2013-08-07 12:12:00,80.1,50.7,29.97,North,360,4.0,7.0,36,0.00,FEW,FEW,0.00,WeatherDisplay:10.34,2013-08-07 18:12:00,
2013-08-07 12:17:00,80.1,51.5,29.97,ENE,74,8.0,10.0,37,0.00,FEW,FEW,0.00,WeatherDisplay:10.34,2013-08-07 18:17:00,
2013-08-07 12:22:00,80.1,51.5,29.96,NNW,341,4.0,5.0,37,0.00,FEW,FEW,0.00,WeatherDisplay:10.34,2013-08-07 18:22:00,
2013-08-07 12:27:00,79.9,51.3,29.96,NE,43,5.0,9.0,37,0.00,FEW,FEW,0.00,WeatherDisplay:10.34,2013-08-07 18:27:00,
2013-08-07 12:32:00,80.2,50.8,29.96,NNE,16,7.0,10.0,36,0.00,FEW,FEW,0.00,WeatherDisplay:10.34,2013-08-07 18:32:00,
2013-08-07 12:37:00,79.9,50.6,29.96,WNW,296,4.0,7.0,36,0.00,FEW,FEW,0.00,WeatherDisplay:10.34,2013-08-07 18:37:00,
2013-08-07 12:42:00,80.0,51.4,29.96,North,360,4.0,5.0,37,0.00,FEW,FEW,0.00,WeatherDisplay:10.34,2013-08-07 18:42:00,
2013-08-07 12:47:00,80.6,51.2,29.96,ENE,65,0.0,2.0,36,0.00,FEW,FEW,0.00,WeatherDisplay:10.34,2013-08-07 18:47:00,
2013-08-07 12:52:00,81.4,51.1,29.95,NE,37,7.0,8.0,35,0.00,FEW,FEW,0.00,WeatherDisplay:10.34,2013-08-07 18:52:00,
2013-08-07 12:57:00,81.8,49.1,29.95,ESE,103,5.0,5.0,32,0.00,FEW,FEW,0.00,WeatherDisplay:10.34,2013-08-07 18:57:00,
2013-08-07 13:02:00,82.3,51.9,29.95,NNE,13,9.0,10.0,35,0.00,FEW,FEW,0.00,WeatherDisplay:10.34,2013-08-07 19:02:00,
2013-08-07 13:07:00,82.0,50.1,29.95,West,273,2.0,3.0,33,0.00,FEW,FEW,0.00,WeatherDisplay:10.34,2013-08-07 19:07:00,
2013-08-07 13:12:00,82.1,49.3,29.95,SSW,195,1.0,2.0,32,0.00,FEW,FEW,0.00,WeatherDisplay:10.34,2013-08-07 19:12:00,
2013-08-07 13:17:00,82.3,52.7,29.95,North,360,1.0,3.0,36,0.00,FEW,FEW,0.00,WeatherDisplay:10.34,2013-08-07 19:17:00,
2013-08-07 13:22:00,82.4,52.0,29.94,North,355,7.0,9.0,35,0.00,FEW,FEW,0.00,WeatherDisplay:10.34,2013-08-07 19:22:00,
2013-08-07 13:27:00,82.6,50.6,29.94,NE,52,7.0,7.0,33,0.00,FEW,FEW,0.00,WeatherDisplay:10.34,2013-08-07 19:27:00,
2013-08-07 13:32:00,82.9,50.0,29.94,NNE,26,9.0,9.0,32,0.00,FEW,FEW,0.00,WeatherDisplay:10.34,2013-08-07 19:32:00,
2013-08-07 13:37:00,82.2,51.0,29.94,ENE,64,5.0,9.0,34,0.00,FEW,FEW,0.00,WeatherDisplay:10.34,2013-08-07 19:37:00,
2013-08-07 13:42:00,82.3,50.3,29.94,East,79,9.0,12.0,33,0.00,FEW,FEW,0.00,WeatherDisplay:10.34,2013-08-07 19:42:00,
2013-08-07 13:47:00,82.6,49.7,29.93,NNW,343,8.0,10.0,32,0.00,FEW,FEW,0.00,WeatherDisplay:10.34,2013-08-07 19:47:00,
2013-08-07 13:52:00,82.8,49.9,29.93,ENE,65,10.0,10.0,32,0.00,FEW,FEW,0.00,WeatherDisplay:10.34,2013-08-07 19:52:00,
2013-08-07 13:57:00,83.1,50.2,29.93,NNE,32,3.0,7.0,32,0.00,FEW,FEW,0.00,WeatherDisplay:10.34,2013-08-07 19:57:00,
2013-08-07 14:02:00,83.2,49.4,29.93,NNE,33,7.0,8.0,31,0.00,FEW,FEW,0.00,WeatherDisplay:10.34,2013-08-07 20:02:00,
2013-08-07 14:07:00,83.6,50.6,29.93,ENE,61,10.0,10.0,32,0.00,FEW,FEW,0.00,WeatherDisplay:10.34,2013-08-07 20:07:00,
2013-08-07 14:12:00,83.9,50.9,29.93,NNE,27,3.0,7.0,32,0.00,FEW,FEW,0.00,WeatherDisplay:10.34,2013-08-07 20:12:00,
2013-08-07 14:17:00,84.2,51.1,29.93,NE,42,0.0,1.0,32,0.00,FEW,FEW,0.00,WeatherDisplay:10.34,2013-08-07 20:17:00,
2013-08-07 14:22:00,84.6,48.8,29.93,NE,53,2.0,3.0,29,0.00,FEW,FEW,0.00,WeatherDisplay:10.34,2013-08-07 20:22:00,
2013-08-07 14:27:00,85.0,51.0,29.93,NNW,337,4.0,5.0,31,0.00,FEW,FEW,0.00,WeatherDisplay:10.34,2013-08-07 20:27:00,
2013-08-07 14:32:00,84.9,49.1,29.93,East,92,5.0,8.0,29,0.00,FEW,FEW,0.00,WeatherDisplay:10.34,2013-08-07 20:32:00,
2013-08-07 14:37:00,85.1,48.3,29.93,ENE,74,9.0,10.0,28,0.00,FEW,FEW,0.00,WeatherDisplay:10.34,2013-08-07 20:37:00,
2013-08-07 14:42:00,85.4,48.6,29.92,North,5,9.0,10.0,28,0.00,FEW,FEW,0.00,WeatherDisplay:10.34,2013-08-07 20:42:00,
2013-08-07 14:47:00,84.8,48.1,29.92,NE,46,3.0,5.0,28,0.00,FEW,FEW,0.00,WeatherDisplay:10.34,2013-08-07 20:47:00,
2013-08-07 14:52:00,84.4,51.3,29.92,WNW,284,2.0,7.0,32,0.00,FEW,FEW,0.00,WeatherDisplay:10.34,2013-08-07 20:52:00,
2013-08-07 14:57:00,84.2,47.6,29.92,North,355,15.0,15.0,28,0.00,FEW,FEW,0.00,WeatherDisplay:10.34,2013-08-07 20:57:00,
2013-08-07 15:02:00,84.4,48.7,29.92,NE,34,10.0,12.0,29,0.00,FEW,FEW,0.00,WeatherDisplay:10.34,2013-08-07 21:02:00,
2013-08-07 15:07:00,84.9,49.1,29.91,NNW,331,8.0,9.0,29,0.00,FEW,FEW,0.00,WeatherDisplay:10.34,2013-08-07 21:07:00,
2013-08-07 15:12:00,84.7,48.9,29.91,NW,320,4.0,7.0,29,0.00,FEW,FEW,0.00,WeatherDisplay:10.34,2013-08-07 21:12:00,
2013-08-07 15:17:00,85.2,47.4,29.91,NW,317,8.0,12.0,27,0.00,FEW,FEW,0.00,WeatherDisplay:10.34,2013-08-07 21:17:00,
2013-08-07 15:22:00,85.7,46.9,29.90,NE,44,4.0,8.0,26,0.00,FEW,FEW,0.00,WeatherDisplay:10.34,2013-08-07 21:22:00,
2013-08-07 15:27:00,86.1,47.2,29.90,NE,49,6.0,9.0,26,0.00,CLR,CLR,0.00,WeatherDisplay:10.34,2013-08-07 21:27:00,
2013-08-07 15:32:00,86.4,47.5,29.91,East,86,4.0,7.0,26,0.00,CLR,CLR,0.00,WeatherDisplay:10.34,2013-08-07 21:32:00,
2013-08-07 15:33:00,86.4,47.5,29.91,ENE,60,7.0,9.0,26,0.00,CLR,CLR,0.00,WeatherDisplay:10.34,2013-08-07 21:33:00,
2013-08-07 15:38:00,86.5,48.5,29.91,North,355,5.0,5.0,27,0.00,CLR,CLR,0.00,WeatherDisplay:10.34,2013-08-07 21:38:00,
2013-08-07 15:43:00,86.4,48.5,29.90,NNE,15,7.0,10.0,27,0.00,CLR,CLR,0.00,WeatherDisplay:10.34,2013-08-07 21:43:00,
2013-08-07 15:48:00,86.0,49.1,29.90,NNW,348,8.0,9.0,28,0.00,CLR,CLR,0.00,WeatherDisplay:10.34,2013-08-07 21:48:00,
2013-08-07 15:53:00,86.0,48.1,29.90,NW,309,2.0,5.0,27,0.00,CLR,CLR,0.00,WeatherDisplay:10.34,2013-08-07 21:53:00,
2013-08-07 15:58:00,86.4,49.4,29.90,WNW,298,3.0,10.0,28,0.00,CLR,CLR,0.00,WeatherDisplay:10.34,2013-08-07 21:58:00,
2013-08-07 16:03:00,86.5,48.5,29.90,North,355,8.0,10.0,27,0.00,CLR,CLR,0.00,WeatherDisplay:10.34,2013-08-07 22:03:00,
2013-08-07 16:08:00,86.3,48.4,29.90,WNW,300,4.0,8.0,27,0.00,CLR,CLR,0.00,WeatherDisplay:10.34,2013-08-07 22:08:00,
2013-08-07 16:13:00,85.9,47.0,29.89,NW,313,1.0,1.0,26,0.00,CLR,CLR,0.00,WeatherDisplay:10.34,2013-08-07 22:13:00,
2013-08-07 16:18:00,86.4,47.5,29.89,North,360,4.0,5.0,26,0.00,CLR,CLR,0.00,WeatherDisplay:10.34,2013-08-07 22:18:00,
2013-08-07 16:23:00,86.5,47.5,29.90,NE,37,1.0,2.0,26,0.00,CLR,CLR,0.00,WeatherDisplay:10.34,2013-08-07 22:23:00,
2013-08-07 16:28:00,86.7,46.7,29.90,ENE,67,10.0,12.0,25,0.00,CLR,CLR,0.00,WeatherDisplay:10.34,2013-08-07 22:28:00,
2013-08-07 16:33:00,86.9,48.9,29.90,NNW,330,1.0,2.0,27,0.00,CLR,CLR,0.00,WeatherDisplay:10.34,2013-08-07 22:33:00,
2013-08-07 16:38:00,86.9,47.9,29.90,NNE,23,7.0,8.0,26,0.00,CLR,CLR,0.00,WeatherDisplay:10.34,2013-08-07 22:38:00,
2013-08-07 16:43:00,86.3,46.3,29.89,NW,314,9.0,12.0,25,0.00,CLR,CLR,0.00,WeatherDisplay:10.34,2013-08-07 22:43:00,
2013-08-07 16:48:00,86.1,47.2,29.89,NNE,22,8.0,8.0,26,0.00,CLR,CLR,0.00,WeatherDisplay:10.34,2013-08-07 22:48:00,
2013-08-07 16:53:00,85.9,48.0,29.88,NW,320,11.0,13.0,27,0.00,CLR,CLR,0.00,WeatherDisplay:10.34,2013-08-07 22:53:00,
2013-08-07 16:58:00,85.6,46.8,29.88,North,349,18.0,18.0,26,0.00,CLR,CLR,0.00,WeatherDisplay:10.34,2013-08-07 22:58:00,
2013-08-07 17:03:00,84.7,45.0,29.88,NW,323,11.0,11.0,25,0.00,CLR,CLR,0.00,WeatherDisplay:10.34,2013-08-07 23:03:00,
2013-08-07 17:08:00,84.7,46.0,29.88,NNW,341,11.0,14.0,26,0.00,CLR,CLR,0.00,WeatherDisplay:10.34,2013-08-07 23:08:00,
2013-08-07 17:13:00,84.8,47.1,29.89,North,350,6.0,7.0,27,0.00,CLR,CLR,0.00,WeatherDisplay:10.34,2013-08-07 23:13:00,
2013-08-07 17:18:00,84.7,46.0,29.89,NNW,339,14.0,14.0,26,0.00,CLR,CLR,0.00,WeatherDisplay:10.34,2013-08-07 23:18:00,
2013-08-07 17:23:00,84.6,46.9,29.89,NNW,341,11.0,13.0,27,0.00,CLR,CLR,0.00,WeatherDisplay:10.34,2013-08-07 23:23:00,
2013-08-07 17:28:00,84.0,46.4,29.90,NNW,337,11.0,15.0,27,0.00,CLR,CLR,0.00,WeatherDisplay:10.34,2013-08-07 23:28:00,
2013-08-07 17:33:00,83.8,45.3,29.89,NNW,335,11.0,14.0,26,0.00,CLR,CLR,0.00,WeatherDisplay:10.34,2013-08-07 23:33:00,
2013-08-07 17:38:00,83.7,47.1,29.89,NNW,348,16.0,16.0,28,0.00,CLR,CLR,0.00,WeatherDisplay:10.34,2013-08-07 23:38:00,
2013-08-07 17:43:00,83.2,46.7,29.90,North,350,19.0,21.0,28,0.00,CLR,CLR,0.00,WeatherDisplay:10.34,2013-08-07 23:43:00,
2013-08-07 17:48:00,83.3,46.8,29.90,WNW,300,9.0,9.0,28,0.00,CLR,CLR,0.00,WeatherDisplay:10.34,2013-08-07 23:48:00,
2013-08-07 17:53:00,83.5,46.0,29.89,North,360,9.0,10.0,27,0.00,CLR,CLR,0.00,WeatherDisplay:10.34,2013-08-07 23:53:00,
2013-08-07 17:58:00,83.5,47.0,29.89,WNW,292,8.0,8.0,28,0.00,CLR,CLR,0.00,WeatherDisplay:10.34,2013-08-07 23:58:00,
2013-08-07 18:03:00,83.6,47.0,29.89,NW,323,9.0,14.0,28,0.00,CLR,CLR,0.00,WeatherDisplay:10.34,2013-08-08 00:03:00,
2013-08-07 18:08:00,83.4,46.9,29.90,North,360,5.0,12.0,28,0.00,CLR,CLR,0.00,WeatherDisplay:10.34,2013-08-08 00:08:00,
2013-08-07 18:13:00,83.4,46.9,29.89,NW,311,8.0,9.0,28,0.00,CLR,CLR,0.00,WeatherDisplay:10.34,2013-08-08 00:13:00,
2013-08-07 18:18:00,83.5,47.0,29.89,NNW,341,4.0,8.0,28,0.00,CLR,CLR,0.00,WeatherDisplay:10.34,2013-08-08 00:18:00,
2013-08-07 18:23:00,83.4,45.9,29.89,NW,307,8.0,8.0,27,0.00,CLR,CLR,0.00,WeatherDisplay:10.34,2013-08-08 00:23:00,
2013-08-07 18:28:00,83.3,45.8,29.89,WNW,294,5.0,10.0,27,0.00,CLR,CLR,0.00,WeatherDisplay:10.34,2013-08-08 00:28:00,
2013-08-07 18:33:00,83.0,45.6,29.90,NW,322,6.0,6.0,27,0.00,CLR,CLR,0.00,WeatherDisplay:10.34,2013-08-08 00:33:00,
2013-08-07 18:38:00,82.7,45.3,29.90,WNW,289,9.0,10.0,27,0.00,CLR,CLR,0.00,WeatherDisplay:10.34,2013-08-08 00:38:00,
2013-08-07 18:43:00,82.6,44.2,29.90,NW,313,7.0,7.0,26,0.00,CLR,CLR,0.00,WeatherDisplay:10.34,2013-08-08 00:43:00,
2013-08-07 18:48:00,82.6,45.2,29.90,NW,325,6.0,9.0,27,0.00,CLR,CLR,0.00,WeatherDisplay:10.34,2013-08-08 00:48:00,
2013-08-07 18:53:00,82.6,46.2,29.90,NW,323,5.0,5.0,28,0.00,CLR,CLR,0.00,WeatherDisplay:10.34,2013-08-08 00:53:00,
2013-08-07 18:58:00,82.2,45.8,29.90,NW,314,8.0,8.0,28,0.00,CLR,CLR,0.00,WeatherDisplay:10.34,2013-08-08 00:58:00,
2013-08-07 19:03:00,81.5,45.2,29.90,North,355,14.0,14.0,28,0.00,CLR,CLR,0.00,WeatherDisplay:10.34,2013-08-08 01:03:00,
2013-08-07 19:08:00,81.0,43.9,29.90,North,350,14.0,14.0,27,0.00,CLR,CLR,0.00,WeatherDisplay:10.34,2013-08-08 01:08:00,
2013-08-07 19:13:00,80.7,44.6,29.90,NNW,345,10.0,10.0,28,0.00,CLR,CLR,0.00,WeatherDisplay:10.34,2013-08-08 01:13:00,
2013-08-07 19:18:00,80.3,45.1,29.90,North,350,9.0,9.0,29,0.00,CLR,CLR,0.00,WeatherDisplay:10.34,2013-08-08 01:18:00,
2013-08-07 19:23:00,79.9,43.9,29.90,North,350,7.0,8.0,28,0.00,CLR,CLR,0.00,WeatherDisplay:10.34,2013-08-08 01:23:00,
2013-08-07 19:28:00,79.9,42.9,29.90,NW,309,5.0,5.0,27,0.00,CLR,CLR,0.00,WeatherDisplay:10.34,2013-08-08 01:28:00,
2013-08-07 19:33:00,79.9,43.9,29.90,NNW,331,6.0,7.0,28,0.00,CLR,CLR,0.00,WeatherDisplay:10.34,2013-08-08 01:33:00,
2013-08-07 19:38:00,79.7,43.7,29.90,NNW,334,3.0,3.0,28,0.00,CLR,CLR,0.00,WeatherDisplay:10.34,2013-08-08 01:38:00,
2013-08-07 19:43:00,79.4,43.4,29.91,NW,315,3.0,3.0,28,0.00,CLR,CLR,0.00,WeatherDisplay:10.34,2013-08-08 01:43:00,
2013-08-07 19:48:00,79.1,43.2,29.91,NW,317,3.0,3.0,28,0.00,CLR,CLR,0.00,WeatherDisplay:10.34,2013-08-08 01:48:00,
2013-08-07 19:53:00,78.9,43.0,29.90,NW,304,3.0,3.0,28,0.00,CLR,CLR,0.00,WeatherDisplay:10.34,2013-08-08 01:53:00,
2013-08-07 19:58:00,78.7,43.8,29.90,WNW,286,1.0,2.0,29,0.00,BKN,BKN,0.00,WeatherDisplay:10.34,2013-08-08 01:58:00,
2013-08-07 20:03:00,78.5,43.6,29.90,NNW,329,6.0,6.0,29,0.00,OVC,OVC,0.00,WeatherDisplay:10.34,2013-08-08 02:03:00,
2013-08-07 20:08:00,77.9,44.0,29.90,NW,325,4.0,5.0,30,0.00,BKN,BKN,0.00,WeatherDisplay:10.34,2013-08-08 02:08:00,
2013-08-07 20:13:00,77.2,43.4,29.92,NW,319,2.0,3.0,30,0.00,BKN,BKN,0.00,WeatherDisplay:10.34,2013-08-08 02:13:00,
2013-08-07 20:18:00,76.8,43.9,29.92,NW,304,2.0,2.0,31,0.00,SCT,SCT,0.00,WeatherDisplay:10.34,2013-08-08 02:18:00,
2013-08-07 20:23:00,76.1,44.1,29.92,West,264,3.0,3.0,32,0.00,CLR,CLR,0.00,WeatherDisplay:10.34,2013-08-08 02:23:00,
2013-08-07 20:28:00,75.4,43.5,29.92,NNW,327,6.0,9.0,32,0.00,OVC,OVC,0.00,WeatherDisplay:10.34,2013-08-08 02:28:00,
2013-08-07 20:33:00,74.5,43.5,29.91,West,269,4.0,9.0,33,0.00,OVC,OVC,0.00,WeatherDisplay:10.34,2013-08-08 02:33:00,
2013-08-07 20:38:00,73.9,43.8,29.91,West,281,3.0,5.0,34,0.00,OVC,OVC,0.00,WeatherDisplay:10.34,2013-08-08 02:38:00,
2013-08-07 20:43:00,73.7,44.3,29.93,West,272,3.0,7.0,35,0.00,OVC,OVC,0.00,WeatherDisplay:10.34,2013-08-08 02:43:00,
2013-08-07 20:48:00,73.4,44.8,29.93,WNW,298,3.0,3.0,36,0.00,OVC,OVC,0.00,WeatherDisplay:10.34,2013-08-08 02:48:00,
2013-08-07 20:53:00,73.0,44.5,29.93,West,281,3.0,5.0,36,0.00,OVC,OVC,0.00,WeatherDisplay:10.34,2013-08-08 02:53:00,
2013-08-07 20:58:00,72.4,45.4,29.93,West,278,2.0,2.0,38,0.00,OVC,OVC,0.00,WeatherDisplay:10.34,2013-08-08 02:58:00,
2013-08-07 21:03:00,71.7,44.7,29.93,NE,55,7.0,9.0,38,0.00,,,0.00,WeatherDisplay:10.34,2013-08-08 03:03:00,
2013-08-07 21:08:00,71.3,44.4,29.93,NNW,329,3.0,3.0,38,0.00,,,0.00,WeatherDisplay:10.34,2013-08-08 03:08:00,
2013-08-07 21:13:00,71.2,44.3,29.95,NNE,28,3.0,3.0,38,0.00,,,0.00,WeatherDisplay:10.34,2013-08-08 03:13:00,
2013-08-07 21:18:00,71.2,45.6,29.95,NNE,24,1.0,1.0,40,0.00,,,0.00,WeatherDisplay:10.34,2013-08-08 03:18:00,
2013-08-07 21:24:00,71.0,46.7,29.95,NNW,342,3.0,5.0,42,0.00,,,0.00,WeatherDisplay:10.34,2013-08-08 03:24:00,
2013-08-07 21:29:00,70.8,46.6,29.95,North,355,5.0,7.0,42,0.00,,,0.00,WeatherDisplay:10.34,2013-08-08 03:29:00,
2013-08-07 21:34:00,70.5,46.3,29.97,North,355,5.0,8.0,42,0.00,,,0.00,WeatherDisplay:10.34,2013-08-08 03:34:00,
2013-08-07 21:39:00,70.3,46.7,29.97,North,355,4.0,7.0,43,0.00,,,0.00,WeatherDisplay:10.34,2013-08-08 03:39:00,
2013-08-07 21:44:00,70.2,47.3,29.97,NNW,340,2.0,3.0,44,0.00,,,0.00,WeatherDisplay:10.34,2013-08-08 03:44:00,
2013-08-07 21:49:00,69.9,47.0,29.97,NNW,340,0.0,0.0,44,0.00,,,0.00,WeatherDisplay:10.34,2013-08-08 03:49:00,
2013-08-07 21:54:00,69.7,46.8,29.97,NNW,340,0.0,1.0,44,0.00,,,0.00,WeatherDisplay:10.34,2013-08-08 03:54:00,
2013-08-07 21:59:00,69.5,47.2,29.97,NNW,340,2.0,2.0,45,0.00,,,0.00,WeatherDisplay:10.34,2013-08-08 03:59:00,
2013-08-07 22:01:00,69.5,47.2,29.98,NNW,340,2.0,2.0,45,0.00,,,0.00,WeatherDisplay:10.34,2013-08-08 04:01:00,
2013-08-07 22:04:00,69.4,47.1,29.98,NNW,340,0.0,1.0,45,0.00,,,0.00,WeatherDisplay:10.34,2013-08-08 04:04:00,
2013-08-07 22:08:00,69.2,47.5,29.98,WSW,248,4.0,4.0,46,0.00,,,0.00,WeatherDisplay:10.34,2013-08-08 04:08:00,
2013-08-07 22:13:00,68.8,47.7,29.98,SW,215,5.0,7.0,47,0.00,,,0.00,WeatherDisplay:10.34,2013-08-08 04:13:00,
2013-08-07 22:18:00,68.2,47.8,29.98,SSW,212,2.0,2.0,48,0.00,,,0.00,WeatherDisplay:10.34,2013-08-08 04:18:00,
2013-08-07 22:23:00,67.2,47.9,29.99,SSW,194,0.0,1.0,50,0.00,,,0.00,WeatherDisplay:10.34,2013-08-08 04:23:00,
2013-08-07 22:28:00,66.4,47.7,29.99,SSW,194,0.0,1.0,51,0.00,,,0.00,WeatherDisplay:10.34,2013-08-08 04:28:00,
2013-08-07 22:33:00,65.7,48.1,29.99,SSW,199,4.0,5.0,53,0.00,,,0.00,WeatherDisplay:10.34,2013-08-08 04:33:00,
2013-08-07 22:38:00,65.1,48.0,29.99,SSW,199,3.0,3.0,54,0.00,,,0.00,WeatherDisplay:10.34,2013-08-08 04:38:00,
2013-08-07 22:43:00,64.6,48.5,30.00,SW,215,4.0,7.0,56,0.00,,,0.00,WeatherDisplay:10.34,2013-08-08 04:43:00,
2013-08-07 22:48:00,64.1,48.1,30.00,SW,217,1.0,2.0,56,0.00,,,0.00,WeatherDisplay:10.34,2013-08-08 04:48:00,
2013-08-07 22:53:00,63.6,48.5,30.00,SSW,205,3.0,3.0,58,0.00,,,0.00,WeatherDisplay:10.34,2013-08-08 04:53:00,
2013-08-07 22:58:00,63.3,48.7,30.00,SSW,205,3.0,3.0,59,0.00,,,0.00,WeatherDisplay:10.34,2013-08-08 04:58:00,
2013-08-07 23:03:00,63.1,49.4,30.00,SSW,209,5.0,5.0,61,0.00,,,0.00,WeatherDisplay:10.34,2013-08-08 05:03:00,
2013-08-07 23:08:00,63.0,48.4,30.00,SSW,209,2.0,2.0,59,0.00,,,0.00,WeatherDisplay:10.34,2013-08-08 05:08:00,
2013-08-07 23:13:00,62.8,48.3,30.00,SSW,209,0.0,0.0,59,0.00,,,0.00,WeatherDisplay:10.34,2013-08-08 05:13:00,
2013-08-07 23:18:00,62.7,48.2,30.00,SSW,209,0.0,1.0,59,0.00,,,0.00,WeatherDisplay:10.34,2013-08-08 05:18:00,
2013-08-07 23:23:00,62.5,48.0,29.99,SSW,209,0.0,2.0,59,0.00,,,0.00,WeatherDisplay:10.34,2013-08-08 05:23:00,
2013-08-07 23:28:00,62.3,47.8,29.99,SSW,209,0.0,1.0,59,0.00,,,0.00,WeatherDisplay:10.34,2013-08-08 05:28:00,
2013-08-07 23:33:00,62.2,47.2,29.99,WNW,301,3.0,3.0,58,0.00,,,0.00,WeatherDisplay:10.34,2013-08-08 05:33:00,
2013-08-07 23:38:00,62.2,46.8,29.99,WNW,282,3.0,5.0,57,0.00,,,0.00,WeatherDisplay:10.34,2013-08-08 05:38:00,
2013-08-07 23:43:00,62.5,47.1,29.99,West,276,2.0,2.0,57,0.00,,,0.00,WeatherDisplay:10.34,2013-08-08 05:43:00,
2013-08-07 23:48:00,62.8,46.9,29.99,West,278,3.0,3.0,56,0.00,,,0.00,WeatherDisplay:10.34,2013-08-08 05:48:00,
2013-08-07 23:53:00,63.1,46.7,29.99,West,269,2.0,3.0,55,0.00,,,0.00,WeatherDisplay:10.34,2013-08-08 05:53:00,
2013-08-07 23:58:00,63.3,46.9,29.99,WSW,246,3.0,3.0,55,0.00,,,0.00,WeatherDisplay:10.34,2013-08-08 05:58:00,